Time;durP1;ratioP1;P1;durP2;ratioP2;P2;SDS_P1;SDS_P2;PMS_P1;PMS_P2;Temp;Humidity;BMP_temperature;BMP_pressure;BME280_temperature;BME280_humidity;BME280_pressure;Samples;Min_cycle;Max_cycle;Signal;HPM_P1;HPM_P2
2021/05/17 00:00:31;;;;;;;6.82;2.20;;;;;;;19.15;60.88;100096.59;5029743;28;20030;-71
2021/05/17 00:03:00;;;;;;;5.03;1.90;;;;;;;19.15;61.12;100101.09;5013749;28;20079;-70
2021/05/17 00:05:26;;;;;;;3.95;1.67;;;;;;;19.15;61.01;100098.44;5030347;28;20129;-74
2021/05/17 00:07:52;;;;;;;5.35;2.00;;;;;;;19.14;60.90;100102.94;5017750;28;20042;-72
2021/05/17 00:10:18;;;;;;;7.05;1.90;;;;;;;19.15;60.87;100101.91;5012450;28;20084;-70
2021/05/17 00:12:44;;;;;;;5.50;2.03;;;;;;;19.14;60.78;100097.63;5028841;28;20037;-70
2021/05/17 00:15:13;;;;;;;5.38;1.90;;;;;;;19.14;61.07;100097.63;5031199;28;20087;-71
2021/05/17 00:17:40;;;;;;;4.50;1.73;;;;;;;19.14;61.04;100102.13;5018053;28;20037;-71
2021/05/17 00:20:08;;;;;;;5.03;1.83;;;;;;;19.14;60.82;100102.94;5024966;28;20037;-72
2021/05/17 00:22:34;;;;;;;6.75;1.95;;;;;;;19.14;61.04;100105.59;5017902;28;20084;-70
2021/05/17 00:25:00;;;;;;;6.68;1.75;;;;;;;19.15;61.20;100103.75;5029821;28;20081;-73
2021/05/17 00:27:26;;;;;;;7.63;1.90;;;;;;;19.15;60.89;100106.44;5029608;28;20029;-74
2021/05/17 00:29:53;;;;;;;5.22;2.28;;;;;;;19.15;61.15;100115.22;5021689;28;20450;-70
2021/05/17 00:32:19;;;;;;;4.88;1.90;;;;;;;19.15;60.96;100114.41;5029960;28;20033;-70
2021/05/17 00:34:45;;;;;;;4.68;1.70;;;;;;;19.13;60.62;100114.63;5031006;28;20026;-71
2021/05/17 00:37:12;;;;;;;5.53;1.83;;;;;;;19.15;60.53;100114.41;5014651;28;20073;-71
2021/05/17 00:39:38;;;;;;;5.70;2.10;;;;;;;19.14;60.61;100112.78;5029608;28;20484;-70
2021/05/17 00:42:04;;;;;;;4.78;1.50;;;;;;;19.14;60.58;100108.25;4997029;28;20034;-71
2021/05/17 00:44:31;;;;;;;6.03;1.65;;;;;;;19.15;60.92;100119.72;5026616;28;20061;-73
2021/05/17 00:46:57;;;;;;;4.88;1.95;;;;;;;19.15;60.59;100123.19;5029796;28;20080;-70
2021/05/17 00:49:23;;;;;;;4.50;1.67;;;;;;;19.15;60.88;100130.34;5015889;28;20095;-74
2021/05/17 00:51:48;;;;;;;3.85;1.60;;;;;;;19.16;61.01;100126.66;5029575;28;20037;-70
2021/05/17 00:54:14;;;;;;;4.55;1.92;;;;;;;19.14;60.64;100129.53;5015035;28;20129;-71
2021/05/17 00:56:41;;;;;;;3.65;1.40;;;;;;;19.15;60.92;100130.34;5016299;28;20034;-72
2021/05/17 00:59:07;;;;;;;3.90;1.77;;;;;;;19.15;60.76;100136.47;5024316;28;20041;-70
2021/05/17 01:01:33;;;;;;;4.60;1.88;;;;;;;19.14;60.86;100134.84;5010620;28;20103;-72
2021/05/17 01:03:59;;;;;;;5.78;1.80;;;;;;;19.15;60.88;100141.00;5012469;28;20033;-70
2021/05/17 01:06:27;;;;;;;4.32;1.90;;;;;;;19.15;60.58;100141.00;5027919;28;20484;-74
2021/05/17 01:09:20;;;;;;;5.38;1.73;;;;;;;19.10;60.53;100141.63;5028622;28;20484;-72
2021/05/17 01:11:45;;;;;;;5.15;1.80;;;;;;;19.14;60.67;100139.34;5007673;28;20053;-70
2021/05/17 01:14:13;;;;;;;4.32;1.60;;;;;;;19.15;60.97;100141.81;5001500;28;20035;-71
2021/05/17 01:16:39;;;;;;;3.35;1.52;;;;;;;19.14;60.60;100145.50;5021583;28;20030;-70
2021/05/17 01:19:09;;;;;;;4.00;1.58;;;;;;;19.17;60.88;100146.09;5019809;28;20033;-73
2021/05/17 01:21:37;;;;;;;4.13;1.65;;;;;;;19.15;60.25;100157.75;5028922;28;20037;-71
2021/05/17 01:24:04;;;;;;;3.58;1.65;;;;;;;19.15;60.59;100159.59;5011148;28;20484;-70
2021/05/17 01:26:32;;;;;;;4.60;1.48;;;;;;;19.15;60.37;100162.25;5029126;28;20038;-71
2021/05/17 01:29:01;;;;;;;4.43;1.70;;;;;;;19.15;60.47;100165.72;5027983;28;20030;-73
2021/05/17 01:31:27;;;;;;;3.95;1.60;;;;;;;19.14;60.72;100166.75;5029125;28;20075;-70
2021/05/17 01:33:52;;;;;;;3.38;1.40;;;;;;;19.15;60.75;100167.56;5029372;28;20065;-70
2021/05/17 01:36:19;;;;;;;2.55;1.35;;;;;;;19.15;60.89;100171.03;5029505;28;20088;-72
2021/05/17 01:38:48;;;;;;;4.10;1.50;;;;;;;19.16;60.57;100177.19;5023771;28;20026;-72
2021/05/17 01:41:16;;;;;;;2.42;1.20;;;;;;;19.16;60.88;100182.50;5011022;28;20041;-70
2021/05/17 01:43:44;;;;;;;3.47;1.50;;;;;;;19.16;60.49;100171.88;5027644;28;20037;-70
2021/05/17 01:46:14;;;;;;;3.90;1.63;;;;;;;19.14;60.75;100177.38;5026640;28;20039;-70
2021/05/17 01:48:40;;;;;;;4.53;1.50;;;;;;;19.15;60.60;100175.56;5029345;28;20174;-70
2021/05/17 01:51:08;;;;;;;3.88;1.85;;;;;;;19.14;60.45;100182.72;5028965;28;20030;-71
2021/05/17 01:53:36;;;;;;;5.30;1.65;;;;;;;19.15;60.57;100184.34;5027094;28;20037;-70
2021/05/17 01:56:03;;;;;;;3.92;1.50;;;;;;;19.15;60.50;100191.50;5026271;28;20029;-71
2021/05/17 01:58:29;;;;;;;3.08;1.33;;;;;;;19.15;60.31;100194.97;5004662;28;20029;-71
2021/05/17 02:00:55;;;;;;;2.72;1.30;;;;;;;19.17;60.33;100196.59;5023753;28;20539;-70
2021/05/17 02:03:20;;;;;;;3.20;1.42;;;;;;;19.15;60.33;100197.63;5026682;28;20037;-71
2021/05/17 02:05:47;;;;;;;2.83;1.27;;;;;;;19.15;60.50;100200.28;5004260;28;20041;-71
2021/05/17 02:08:17;;;;;;;2.90;1.40;;;;;;;19.14;60.42;100193.34;5019642;28;20155;-73
2021/05/17 02:10:44;;;;;;;3.92;1.50;;;;;;;19.15;60.52;100200.28;5026807;28;20049;-71
2021/05/17 02:13:16;;;;;;;2.70;1.23;;;;;;;19.13;60.18;100197.03;5026649;28;20040;-71
2021/05/17 02:15:43;;;;;;;4.57;1.40;;;;;;;19.15;60.33;100202.13;5027028;28;20036;-71
2021/05/17 02:18:09;;;;;;;3.70;1.40;;;;;;;19.14;60.01;100203.97;5026630;28;20038;-70
2021/05/17 02:20:37;;;;;;;3.08;1.63;;;;;;;19.14;60.24;100205.81;5009331;28;20122;-71
2021/05/17 02:23:09;;;;;;;3.25;1.33;;;;;;;19.12;60.33;100208.69;5027412;28;20041;-73
2021/05/17 02:25:36;;;;;;;4.05;1.88;;;;;;;19.14;60.32;100211.13;5027495;28;20365;-70
2021/05/17 02:28:01;;;;;;;2.33;1.30;;;;;;;19.13;60.03;100215.63;5026304;28;20539;-80
2021/05/17 02:30:27;;;;;;;2.25;1.20;;;;;;;19.14;60.04;100224.44;5026341;28;20041;-74
2021/05/17 02:32:54;;;;;;;3.05;1.48;;;;;;;19.14;59.93;100224.44;5008385;28;20041;-72
2021/05/17 02:35:21;;;;;;;2.63;1.48;;;;;;;19.13;59.79;100226.28;5031381;28;20046;-70
2021/05/17 02:37:48;;;;;;;4.18;1.52;;;;;;;19.12;60.05;100227.31;5031540;28;20038;-70
2021/05/17 02:40:15;;;;;;;2.67;1.30;;;;;;;19.13;59.88;100236.91;5026445;28;20546;-70
2021/05/17 02:42:44;;;;;;;4.03;1.30;;;;;;;19.12;59.90;100235.28;5024344;28;20085;-71
2021/05/17 02:45:10;;;;;;;2.85;1.38;;;;;;;19.13;59.92;100236.09;5019777;28;20029;-69
2021/05/17 02:47:37;;;;;;;1.92;1.00;;;;;;;19.13;59.84;100233.44;5026493;28;20473;-71
2021/05/17 02:50:05;;;;;;;1.90;1.10;;;;;;;19.13;59.77;100238.75;5007467;28;20037;-71
2021/05/17 02:52:31;;;;;;;2.22;1.10;;;;;;;19.12;60.00;100245.09;5025258;28;20030;-70
2021/05/17 02:55:08;;;;;;;3.03;1.10;;;;;;;19.10;59.75;100255.94;5026993;28;20037;-70
2021/05/17 02:57:45;;;;;;;3.47;1.60;;;;;;;19.12;59.80;100258.38;5019847;28;20049;-74
2021/05/17 03:00:17;;;;;;;3.05;1.38;;;;;;;19.10;59.55;100255.94;5025036;28;20029;-71
2021/05/17 03:02:57;;;;;;;2.28;1.20;;;;;;;19.09;59.58;100248.13;4999055;28;20392;-72
2021/05/17 03:05:23;;;;;;;2.53;1.23;;;;;;;19.12;59.67;100261.03;5026352;28;20080;-70
2021/05/17 03:07:59;;;;;;;3.45;1.20;;;;;;;19.11;59.73;100265.56;5031007;28;20047;-70
2021/05/17 03:10:27;;;;;;;2.05;1.10;;;;;;;19.12;59.69;100272.50;5025993;28;20057;-73
2021/05/17 03:12:56;;;;;;;2.35;1.10;;;;;;;19.12;59.89;100271.69;5030782;28;20041;-70
2021/05/17 03:15:26;;;;;;;2.72;1.05;;;;;;;19.11;59.80;100260.22;5030715;28;20393;-70
2021/05/17 03:17:57;;;;;;;2.47;1.15;;;;;;;19.11;59.81;100265.56;4998169;28;20127;-70
2021/05/17 03:20:23;;;;;;;2.35;1.10;;;;;;;19.11;59.84;100268.22;5029908;28;20018;-70
2021/05/17 03:22:50;;;;;;;2.15;1.10;;;;;;;19.11;59.48;100268.22;5013161;28;20045;-70
2021/05/17 03:25:20;;;;;;;2.08;1.00;;;;;;;19.10;59.66;100277.22;5012889;28;20087;-72
2021/05/17 03:27:45;;;;;;;2.38;1.23;;;;;;;19.11;59.78;100284.16;5030602;28;20455;-70
2021/05/17 03:30:12;;;;;;;2.50;1.20;;;;;;;19.10;59.74;100285.19;5031016;28;20033;-71
2021/05/17 03:32:37;;;;;;;2.83;1.17;;;;;;;19.10;59.71;100290.50;5007042;28;20111;-70
2021/05/17 03:35:04;;;;;;;2.45;1.15;;;;;;;19.12;59.31;100296.44;5029088;28;20516;-74
2021/05/17 03:37:29;;;;;;;2.15;1.00;;;;;;;19.10;59.31;100295.81;5011183;28;20038;-70
2021/05/17 03:39:55;;;;;;;3.15;1.55;;;;;;;19.11;59.58;100300.09;5024255;28;20350;-74
2021/05/17 03:42:20;;;;;;;2.60;1.23;;;;;;;19.10;59.48;100301.13;5029604;28;20089;-70
2021/05/17 03:44:46;;;;;;;3.58;1.20;;;;;;;19.09;59.50;100303.97;5025487;28;20036;-71
2021/05/17 03:47:12;;;;;;;3.10;1.27;;;;;;;19.10;59.21;100316.28;5013752;28;20046;-70
2021/05/17 03:49:37;;;;;;;2.80;1.30;;;;;;;19.09;59.44;100318.13;5009351;28;20439;-70
2021/05/17 03:52:04;;;;;;;2.92;1.17;;;;;;;19.10;59.60;100316.28;5024597;28;20033;-72
2021/05/17 03:54:29;;;;;;;2.22;1.00;;;;;;;19.09;59.45;100317.25;5029037;28;20469;-70
2021/05/17 03:56:55;;;;;;;4.07;1.38;;;;;;;19.10;59.24;100318.94;5011632;28;20041;-72
2021/05/17 03:59:21;;;;;;;1.92;0.95;;;;;;;19.08;59.24;100321.75;5006502;28;20037;-70
2021/05/17 04:01:47;;;;;;;2.42;0.95;;;;;;;19.09;59.33;100327.91;5029724;28;20200;-70
2021/05/17 04:04:14;;;;;;;2.15;1.25;;;;;;;19.08;59.20;100328.91;5029811;28;20037;-70
2021/05/17 04:07:49;;;;;;;2.67;1.13;;;;;;;19.09;59.19;100330.56;5027563;28;20029;-70
2021/05/17 04:15:02;;;;;;;2.05;1.00;;;;;;;19.06;59.24;100339.75;5029808;28;20114;-70
2021/05/17 04:17:28;;;;;;;1.52;1.10;;;;;;;19.07;58.92;100344.06;5029859;28;20112;-72
2021/05/17 04:19:53;;;;;;;2.33;1.10;;;;;;;19.07;59.39;100348.56;5030388;28;20124;-73
2021/05/17 04:22:19;;;;;;;1.50;0.85;;;;;;;19.07;59.00;100357.34;5011782;28;20030;-70
2021/05/17 04:24:44;;;;;;;2.42;1.10;;;;;;;19.08;59.04;100358.16;5027000;28;20132;-70
2021/05/17 04:27:09;;;;;;;4.38;1.33;;;;;;;19.07;59.25;100357.34;5028654;28;20061;-69
2021/05/17 04:29:35;;;;;;;2.10;1.00;;;;;;;19.06;59.07;100363.69;5030573;28;20136;-71
2021/05/17 04:32:00;;;;;;;1.88;1.00;;;;;;;19.06;59.16;100362.88;5002938;28;20400;-69
2021/05/17 04:34:27;;;;;;;2.13;1.00;;;;;;;19.06;59.00;100373.50;5026773;28;20103;-78
2021/05/17 04:36:52;;;;;;;1.73;1.10;;;;;;;19.05;58.96;100372.69;5028225;28;20033;-72
2021/05/17 04:39:19;;;;;;;1.73;0.85;;;;;;;19.05;59.04;100370.03;5027301;28;20095;-70
2021/05/17 04:41:45;;;;;;;1.25;0.80;;;;;;;19.05;59.06;100364.72;5022232;28;20044;-71
2021/05/17 04:44:11;;;;;;;2.03;1.10;;;;;;;19.05;58.83;100370.03;5030001;28;20034;-71
2021/05/17 04:46:36;;;;;;;1.98;0.98;;;;;;;19.05;58.99;100378.00;5029458;28;20072;-71
2021/05/17 04:49:02;;;;;;;1.83;1.10;;;;;;;19.05;58.72;100380.66;5028261;28;20029;-70
2021/05/17 04:51:28;;;;;;;2.78;1.00;;;;;;;19.06;58.68;100384.13;5029418;28;20545;-73
2021/05/17 04:53:53;;;;;;;1.50;1.10;;;;;;;19.05;58.66;100380.66;5029595;28;20044;-71
2021/05/17 04:56:19;;;;;;;2.17;1.05;;;;;;;19.05;58.97;100383.31;5028002;28;20386;-70
2021/05/17 04:58:45;;;;;;;2.70;1.00;;;;;;;19.06;58.92;100387.63;5029351;28;20033;-73
2021/05/17 05:01:11;;;;;;;2.85;1.20;;;;;;;19.06;58.75;100389.47;5027845;28;20079;-70
2021/05/17 05:03:36;;;;;;;1.88;1.10;;;;;;;19.06;58.64;100394.78;5028829;28;20148;-70
2021/05/17 05:06:02;;;;;;;2.35;1.00;;;;;;;19.05;58.81;100388.63;5011767;28;20033;-70
2021/05/17 05:08:28;;;;;;;1.90;0.82;;;;;;;19.05;58.85;100396.63;5028330;28;20037;-70
2021/05/17 05:10:54;;;;;;;2.20;1.10;;;;;;;19.06;58.68;100403.56;5029372;28;20057;-73
2021/05/17 05:13:20;;;;;;;3.13;1.27;;;;;;;19.06;58.58;100406.22;5025554;28;20041;-70
2021/05/17 05:15:50;;;;;;;1.65;0.90;;;;;;;19.06;58.75;100403.56;5025196;28;20091;-72
2021/05/17 05:18:15;;;;;;;2.28;1.05;;;;;;;19.07;58.73;100409.69;5029550;28;20048;-71
2021/05/17 05:20:40;;;;;;;1.92;0.82;;;;;;;19.05;58.66;100412.56;5028887;28;20440;-70
2021/05/17 05:23:12;;;;;;;1.30;0.90;;;;;;;19.05;58.66;100417.88;5023264;28;20661;-72
2021/05/17 05:34:17;;;;;;;3.72;1.02;;;;;;;19.05;58.59;100428.50;5017743;28;20425;-72
2021/05/17 05:36:43;;;;;;;1.75;1.00;;;;;;;19.04;58.71;100426.88;5022726;28;20053;-70
2021/05/17 05:39:09;;;;;;;1.13;0.82;;;;;;;19.04;58.84;100437.50;5010583;28;20099;-74
2021/05/17 05:41:34;;;;;;;1.20;0.77;;;;;;;19.05;58.50;100441.81;5032674;28;20037;-71
2021/05/17 05:44:00;;;;;;;2.08;0.90;;;;;;;19.05;58.42;100443.66;5027386;28;20033;-71
2021/05/17 05:46:26;;;;;;;2.05;1.00;;;;;;;19.04;58.57;100442.81;4998932;28;20034;-81
2021/05/17 05:48:52;;;;;;;2.33;0.90;;;;;;;19.05;58.36;100447.13;5008438;28;20060;-70
2021/05/17 05:51:21;;;;;;;1.50;0.75;;;;;;;19.05;58.43;100455.09;4999647;28;20470;-70
2021/05/17 05:53:47;;;;;;;0.93;0.70;;;;;;;19.05;58.64;100455.09;5021818;28;20113;-70
2021/05/17 05:56:13;;;;;;;2.17;0.98;;;;;;;19.05;58.62;100465.72;5022546;28;20675;-71
2021/05/17 05:58:41;;;;;;;1.52;0.82;;;;;;;19.05;58.57;100465.72;5027796;28;20116;-71
2021/05/17 06:01:06;;;;;;;1.30;0.85;;;;;;;19.04;58.57;100465.94;5025364;28;20105;-70
2021/05/17 06:03:32;;;;;;;1.73;0.88;;;;;;;19.05;58.35;100467.56;5026596;28;20041;-70
2021/05/17 06:05:58;;;;;;;1.77;0.85;;;;;;;19.05;58.18;100468.38;5028152;28;20043;-70
2021/05/17 06:08:24;;;;;;;2.17;0.93;;;;;;;19.05;58.23;100464.91;5027840;28;20113;-71
2021/05/17 06:10:49;;;;;;;2.20;1.00;;;;;;;19.05;58.55;100465.72;5027842;28;20053;-70
2021/05/17 06:13:15;;;;;;;2.13;0.93;;;;;;;19.06;58.31;100463.91;5023949;28;20503;-72
2021/05/17 06:15:44;;;;;;;1.83;0.80;;;;;;;19.07;58.24;100469.00;5027164;28;20365;-73
2021/05/17 06:18:10;;;;;;;2.85;1.08;;;;;;;19.06;58.32;100469.22;5021948;28;20457;-70
2021/05/17 06:20:36;;;;;;;1.40;0.77;;;;;;;19.05;58.54;100471.06;5024049;28;20030;-72
2021/05/17 06:23:02;;;;;;;1.95;0.90;;;;;;;19.06;58.38;100478.00;5003541;28;20041;-73
2021/05/17 06:25:28;;;;;;;1.55;0.90;;;;;;;19.06;58.19;100478.00;5023202;28;20568;-70
2021/05/17 06:27:53;;;;;;;1.17;0.80;;;;;;;19.05;58.04;100481.69;5028510;28;20049;-71
2021/05/17 06:30:21;;;;;;;1.42;0.82;;;;;;;19.06;58.33;100483.31;5026785;28;20757;-70
2021/05/17 06:32:47;;;;;;;1.13;0.80;;;;;;;19.06;58.23;100485.97;5023813;28;20041;-71
2021/05/17 06:35:16;;;;;;;1.42;0.90;;;;;;;19.06;58.30;100487.81;5028088;28;20037;-70
2021/05/17 06:37:42;;;;;;;1.17;0.75;;;;;;;19.05;58.16;100492.31;5022961;28;20034;-75
2021/05/17 06:40:08;;;;;;;1.77;0.80;;;;;;;19.06;58.29;100501.94;5000200;28;20148;-70
2021/05/17 06:42:34;;;;;;;1.10;0.75;;;;;;;19.06;58.14;100498.44;5032396;28;20030;-72
2021/05/17 06:44:59;;;;;;;1.55;0.80;;;;;;;19.06;58.13;100501.94;5031214;28;20052;-70
2021/05/17 06:47:25;;;;;;;2.75;1.00;;;;;;;19.06;58.33;100512.56;5032185;28;20042;-72
2021/05/17 06:49:51;;;;;;;1.88;0.98;;;;;;;19.06;58.17;100511.75;5031801;28;20030;-73
2021/05/17 06:52:18;;;;;;;1.75;0.77;;;;;;;19.05;57.88;100516.25;5032184;28;20369;-70
2021/05/17 06:54:44;;;;;;;1.13;0.85;;;;;;;19.05;57.95;100516.25;5029239;28;20033;-74
2021/05/17 06:59:47;;;;;;;1.90;0.80;;;;;;;19.05;58.16;100520.75;5028021;28;20436;-72
2021/05/17 07:02:20;;;;;;;1.73;0.85;;;;;;;19.02;58.10;100524.63;5030679;28;20162;-70
2021/05/17 07:04:47;;;;;;;1.67;0.82;;;;;;;19.03;58.68;100520.94;5024100;28;20928;-68
2021/05/17 07:07:18;;;;;;;7.30;1.00;;;;;;;19.03;58.70;100531.56;5022700;28;20055;-70
2021/05/17 07:12:28;;;;;;;2.15;0.98;;;;;;;19.05;59.32;100534.84;5027636;28;20072;-75
2021/05/17 07:14:55;;;;;;;3.25;0.98;;;;;;;19.06;59.55;100528.50;5031867;28;20409;-69
2021/05/17 07:17:20;;;;;;;4.32;0.90;;;;;;;19.06;59.42;100533.00;5013443;28;20057;-71
2021/05/17 07:19:46;;;;;;;3.10;1.50;;;;;;;19.02;58.75;100532.59;5018744;28;20888;-69
2021/05/17 07:24:55;;;;;;;5.38;1.25;;;;;;;18.88;57.37;100533.56;5028118;28;20071;-72
2021/05/17 07:27:21;;;;;;;3.55;1.10;;;;;;;18.85;57.41;100542.75;5030339;28;20132;-69
2021/05/17 07:29:46;;;;;;;5.32;1.13;;;;;;;18.84;57.14;100537.66;5028919;28;20040;-71
2021/05/17 07:32:12;;;;;;;3.83;1.23;;;;;;;18.81;56.68;100541.53;5031231;28;20026;-69
2021/05/17 07:34:37;;;;;;;4.45;1.70;;;;;;;18.74;55.88;100543.31;5032380;28;20037;-69
2021/05/17 07:37:04;;;;;;;7.05;1.40;;;;;;;18.70;55.41;100543.91;5031486;28;20064;-69
2021/05/17 07:39:30;;;;;;;3.30;1.50;;;;;;;18.64;55.25;100548.19;5011392;28;20038;-68
2021/05/17 07:41:56;;;;;;;5.80;1.30;;;;;;;18.56;55.04;100557.09;5027175;28;20050;-71
2021/05/17 07:44:21;;;;;;;3.70;1.20;;;;;;;18.55;54.64;100549.31;5025711;28;20077;-70
2021/05/17 07:46:47;;;;;;;3.60;1.30;;;;;;;18.54;54.97;100551.16;5013254;28;20074;-68
2021/05/17 07:49:18;;;;;;;3.95;1.13;;;;;;;18.56;54.24;100554.44;5009612;28;20037;-68
2021/05/17 07:51:46;;;;;;;7.40;1.48;;;;;;;18.54;53.77;100553.00;5027769;28;20030;-69
2021/05/17 07:54:15;;;;;;;3.28;1.10;;;;;;;18.52;53.68;100555.03;5010165;28;20042;-69
2021/05/17 07:56:40;;;;;;;5.20;1.60;;;;;;;18.48;53.72;100551.97;5028650;28;20033;-69
2021/05/17 07:59:06;;;;;;;5.28;1.38;;;;;;;18.49;53.49;100553.59;5031424;28;20041;-70
2021/05/17 08:01:32;;;;;;;4.72;1.20;;;;;;;18.47;53.03;100552.97;5029560;28;20030;-69
2021/05/17 08:03:57;;;;;;;8.38;1.55;;;;;;;18.47;53.02;100565.44;5028188;28;20036;-68
2021/05/17 08:06:26;;;;;;;7.60;1.67;;;;;;;18.45;53.08;100564.78;5031082;28;20037;-70
2021/05/17 08:08:52;;;;;;;6.93;1.40;;;;;;;18.46;52.94;100567.28;5027931;28;20149;-68
2021/05/17 08:11:19;;;;;;;5.18;1.10;;;;;;;18.47;52.53;100560.13;5022792;28;20054;-69
2021/05/17 08:13:44;;;;;;;2.25;0.80;;;;;;;18.47;52.69;100560.94;5029130;28;20037;-68
2021/05/17 08:16:11;;;;;;;4.28;1.20;;;;;;;18.47;52.42;100557.47;5030674;28;20037;-68
2021/05/17 08:18:37;;;;;;;4.50;1.35;;;;;;;18.48;52.26;100569.72;5029573;28;20174;-69
2021/05/17 08:21:04;;;;;;;6.25;1.27;;;;;;;18.48;51.83;100562.59;5013620;28;20045;-68
2021/05/17 08:23:30;;;;;;;4.40;1.48;;;;;;;18.46;52.10;100569.94;5028206;28;20030;-68
2021/05/17 08:25:55;;;;;;;10.77;1.80;;;;;;;18.44;52.00;100569.28;5028007;28;20048;-70
2021/05/17 08:28:21;;;;;;;5.50;1.67;;;;;;;18.45;51.72;100570.91;5026623;28;20101;-70
2021/05/17 08:30:53;;;;;;;6.20;2.00;;;;;;;18.46;52.00;100569.94;5029082;28;20144;-68
2021/05/17 08:33:19;;;;;;;10.50;2.45;;;;;;;18.47;51.95;100570.75;4995296;28;20033;-69
2021/05/17 08:35:45;;;;;;;8.45;2.17;;;;;;;18.45;51.48;100568.25;5029321;28;20065;-68
2021/05/17 08:38:11;;;;;;;8.55;2.17;;;;;;;18.44;51.50;100573.78;5009099;28;20316;-68
2021/05/17 08:40:41;;;;;;;11.57;2.13;;;;;;;18.40;51.25;100575.19;5019757;28;20037;-71
2021/05/17 08:43:06;;;;;;;9.20;2.10;;;;;;;18.39;51.17;100581.50;5025786;28;20067;-71
2021/05/17 08:45:33;;;;;;;10.98;2.65;;;;;;;18.38;51.01;100570.06;5022803;28;20030;-68
2021/05/17 08:47:59;;;;;;;9.43;1.85;;;;;;;18.37;50.93;100576.41;5025389;28;20610;-69
2021/05/17 08:50:25;;;;;;;13.30;2.47;;;;;;;18.40;51.20;100585.81;5023801;28;20064;-68
2021/05/17 08:52:51;;;;;;;9.50;2.05;;;;;;;18.40;50.99;100572.53;4992754;28;20041;-70
2021/05/17 08:55:18;;;;;;;9.05;2.53;;;;;;;18.42;50.81;100586.44;5007108;28;20412;-70
2021/05/17 08:57:45;;;;;;;16.63;1.98;;;;;;;18.41;50.70;100567.00;5026704;28;20044;-70
2021/05/17 09:00:12;;;;;;;9.23;1.90;;;;;;;18.39;50.61;100577.03;5028960;28;20080;-69
2021/05/17 09:02:38;;;;;;;8.90;1.92;;;;;;;18.39;50.54;100563.75;5030265;28;20041;-70
2021/05/17 09:05:24;;;;;;;8.48;1.73;;;;;;;18.40;50.47;100572.53;5030243;28;20038;-69
2021/05/17 09:08:01;;;;;;;9.30;1.92;;;;;;;18.41;50.48;100572.31;5029860;28;20484;-69
2021/05/17 09:10:37;;;;;;;6.70;1.40;;;;;;;18.42;50.43;100575.81;5023863;28;20030;-73
2021/05/17 09:13:06;;;;;;;7.35;1.30;;;;;;;18.44;50.08;100585.22;5025238;28;20117;-68
2021/05/17 09:15:32;;;;;;;7.78;1.30;;;;;;;18.41;49.70;100580.28;5027886;28;20037;-68
2021/05/17 09:18:00;;;;;;;5.93;1.10;;;;;;;18.37;49.22;100584.38;5030279;28;20487;-68
2021/05/17 09:20:34;;;;;;;4.00;1.23;;;;;;;18.35;49.23;100586.41;5028551;28;20052;-71
2021/05/17 09:23:33;;;;;;;5.30;1.00;;;;;;;18.30;49.03;100587.97;5028767;28;20090;-68
2021/05/17 09:26:14;;;;;;;4.65;0.85;;;;;;;18.32;49.25;100586.78;5017546;28;20661;-69
2021/05/17 09:28:44;;;;;;;3.97;0.90;;;;;;;18.33;48.92;100588.44;5029541;28;20106;-68
2021/05/17 09:31:13;;;;;;;3.55;1.10;;;;;;;18.34;49.07;100594.56;5012747;28;20072;-68
2021/05/17 09:34:01;;;;;;;3.20;0.90;;;;;;;18.34;49.09;100592.72;5025255;28;20442;-69
2021/05/17 09:36:31;;;;;;;4.00;1.10;;;;;;;18.36;49.06;100590.69;4999099;28;20057;-69
2021/05/17 09:39:12;;;;;;;2.47;0.90;;;;;;;18.33;48.36;100599.06;4998551;28;20572;-69
2021/05/17 09:41:48;;;;;;;4.20;0.88;;;;;;;18.33;48.45;100600.88;5022202;28;20260;-68
2021/05/17 09:44:25;;;;;;;4.00;1.08;;;;;;;18.31;48.23;100605.56;5029576;28;20048;-69
2021/05/17 09:47:14;;;;;;;3.55;0.93;;;;;;;18.32;48.61;100613.34;5027710;28;20033;-69
2021/05/17 09:49:42;;;;;;;5.05;0.70;;;;;;;18.31;48.35;100611.69;5023988;28;20021;-69
2021/05/17 09:52:13;;;;;;;2.53;0.88;;;;;;;18.30;48.19;100610.03;5024217;28;20095;-68
2021/05/17 09:55:15;;;;;;;2.22;0.88;;;;;;;18.23;48.20;100610.00;5028956;28;20037;-69
2021/05/17 09:57:45;;;;;;;4.28;1.17;;;;;;;18.28;48.10;100617.38;4967899;28;20042;-68
2021/05/17 10:00:25;;;;;;;3.78;1.00;;;;;;;18.25;48.41;100610.63;5018872;28;20044;-67
2021/05/17 10:02:55;;;;;;;4.55;1.00;;;;;;;18.27;48.41;100605.13;5023844;28;20041;-69
2021/05/17 10:05:27;;;;;;;3.00;0.95;;;;;;;18.30;48.58;100614.53;5029205;28;20025;-68
2021/05/17 10:08:01;;;;;;;8.13;1.42;;;;;;;18.33;48.57;100599.06;5024625;28;20061;-68
2021/05/17 10:10:28;;;;;;;4.13;1.08;;;;;;;18.38;48.85;100609.09;5024644;28;20029;-70
2021/05/17 10:12:55;;;;;;;8.30;1.25;;;;;;;18.40;49.09;100599.09;5029727;28;20092;-69
2021/05/17 10:15:22;;;;;;;4.32;1.00;;;;;;;18.42;48.92;100603.19;5028856;28;20112;-72
2021/05/17 10:17:48;;;;;;;5.13;1.20;;;;;;;18.44;49.30;100601.16;5028715;28;20104;-68
2021/05/17 10:20:18;;;;;;;7.35;1.00;;;;;;;18.47;49.43;100602.63;5010934;28;20048;-69
2021/05/17 10:22:45;;;;;;;5.18;1.00;;;;;;;18.50;49.07;100605.69;5023298;28;20033;-69
2021/05/17 10:25:14;;;;;;;4.55;0.90;;;;;;;18.51;48.95;100617.16;5000974;28;20045;-70
2021/05/17 10:27:45;;;;;;;4.43;0.75;;;;;;;18.50;48.92;100612.84;5028613;28;20033;-69
2021/05/17 10:30:12;;;;;;;4.55;1.02;;;;;;;18.49;48.57;100622.66;5029623;28;20030;-69
2021/05/17 10:32:58;;;;;;;5.85;0.95;;;;;;;18.47;48.78;100619.38;5024690;28;20037;-68
2021/05/17 10:35:30;;;;;;;4.88;0.93;;;;;;;18.51;48.44;100620.63;5028676;28;20033;-70
2021/05/17 10:38:22;;;;;;;8.25;0.95;;;;;;;18.48;49.11;100615.69;5028187;28;20029;-68
2021/05/17 10:40:51;;;;;;;6.03;1.45;;;;;;;18.52;48.60;100614.28;5027899;28;20056;-68
2021/05/17 10:43:52;;;;;;;6.95;1.50;;;;;;;18.51;48.79;100609.19;5032782;28;20045;-68
2021/05/17 10:46:40;;;;;;;4.47;1.33;;;;;;;18.54;48.56;100616.75;5000064;28;20389;-68
2021/05/17 10:49:21;;;;;;;6.55;1.50;;;;;;;18.55;48.77;100618.41;5021426;28;20037;-67
2021/05/17 10:51:47;;;;;;;4.85;1.15;;;;;;;18.58;48.66;100607.38;5024566;28;20033;-68
2021/05/17 10:54:22;;;;;;;5.90;1.45;;;;;;;18.58;48.89;100607.38;5024912;28;20050;-67
2021/05/17 11:02:12;;;;;;;10.18;1.88;;;;;;;18.64;49.47;100617.28;5019804;28;20076;-68
2021/05/17 11:04:40;;;;;;;4.75;1.60;;;;;;;18.67;49.00;100618.72;5024883;28;20037;-66
2021/05/17 11:07:25;;;;;;;5.32;1.75;;;;;;;18.63;48.77;100617.44;5022847;28;20037;-70
2021/05/17 11:09:59;;;;;;;6.35;1.60;;;;;;;18.61;48.04;100616.78;5021657;28;20048;-68
2021/05/17 11:12:27;;;;;;;9.02;1.90;;;;;;;18.60;48.31;100617.81;5024861;28;20135;-69
2021/05/17 11:15:08;;;;;;;4.07;1.40;;;;;;;18.56;48.32;100620.03;5028854;28;20029;-67
2021/05/17 11:17:54;;;;;;;6.10;1.35;;;;;;;18.52;48.10;100632.06;5025732;28;20660;-68
2021/05/17 11:20:41;;;;;;;9.90;1.50;;;;;;;18.49;47.76;100625.31;5027432;28;20087;-66
2021/05/17 11:23:16;;;;;;;9.43;1.33;;;;;;;18.50;47.85;100621.63;5022263;28;20237;-67
2021/05/17 11:25:50;;;;;;;5.57;1.35;;;;;;;18.48;47.69;100634.28;5027942;28;20109;-67
2021/05/17 11:28:18;;;;;;;5.55;1.02;;;;;;;18.47;47.38;100637.97;5019196;28;20029;-68
2021/05/17 11:30:45;;;;;;;3.50;1.40;;;;;;;18.47;47.51;100645.13;5031994;28;20045;-69
2021/05/17 11:33:20;;;;;;;7.13;1.10;;;;;;;18.43;47.17;100642.00;5032402;28;20029;-67
2021/05/17 11:36:08;;;;;;;6.43;1.52;;;;;;;18.43;46.86;100641.19;5027803;28;20107;-70
2021/05/17 11:38:33;;;;;;;6.28;1.50;;;;;;;18.46;47.04;100641.66;5021351;28;20026;-67
2021/05/17 11:40:59;;;;;;;4.07;1.40;;;;;;;18.49;47.17;100649.22;5030377;28;20048;-66
2021/05/17 11:43:24;;;;;;;3.63;1.30;;;;;;;18.54;47.24;100641.47;5035014;28;20117;-67
2021/05/17 11:45:50;;;;;;;5.28;1.20;;;;;;;18.56;46.59;100646.59;5031463;28;20045;-66
2021/05/17 11:48:15;;;;;;;3.58;1.10;;;;;;;18.55;45.91;100643.13;5030878;28;20087;-66
2021/05/17 11:50:41;;;;;;;4.28;0.90;;;;;;;18.55;46.05;100645.78;5014346;28;20492;-65
2021/05/17 11:53:14;;;;;;;3.72;1.40;;;;;;;18.53;46.30;100647.00;5029823;28;20503;-66
2021/05/17 11:55:51;;;;;;;4.13;1.20;;;;;;;18.52;45.80;100651.47;5031894;28;20075;-68
2021/05/17 11:58:24;;;;;;;3.00;1.00;;;;;;;18.51;45.34;100647.19;5030821;28;20029;-66